createdAt,value
2023-09-13T00:03:14.300Z,99695.47
2023-09-13T00:08:19.261Z,99691.16
2023-09-13T00:13:22.419Z,99690.31
2023-09-13T00:18:25.870Z,99692.03
2023-09-13T00:23:30.850Z,99701.53
2023-09-13T00:28:34.300Z,99700.66
2023-09-13T00:33:37.868Z,99695.44
2023-09-13T00:38:42.776Z,99694.50
2023-09-13T00:43:46.723Z,99693.53
2023-09-13T00:48:51.250Z,99698.72
2023-09-13T00:53:57.531Z,99692.63
2023-09-13T00:59:01.229Z,99695.25
2023-09-13T01:04:05.673Z,99695.28
2023-09-13T01:09:10.663Z,99687.50
2023-09-13T01:14:14.256Z,99696.09
2023-09-13T01:19:38.684Z,99702.16
2023-09-13T01:25:02.665Z,99703.06
2023-09-13T01:30:11.647Z,99702.13
2023-09-13T01:35:15.385Z,99701.28
2023-09-13T01:40:19.241Z,99699.53
2023-09-13T01:45:25.979Z,99696.97
2023-09-13T01:50:29.797Z,99696.94
2023-09-13T01:55:36.298Z,99703.88
2023-09-13T02:00:42.801Z,99702.09
2023-09-13T02:05:47.692Z,99712.47
2023-09-13T02:10:51.525Z,99703.81
2023-09-13T02:15:56.643Z,99705.53
2023-09-13T02:21:00.298Z,99702.03
2023-09-13T02:26:04.543Z,99705.47
2023-09-13T02:31:09.588Z,99711.53
2023-09-13T02:36:13.089Z,99706.31
2023-09-13T02:41:16.622Z,99705.44
2023-09-13T02:46:21.615Z,99698.50
2023-09-13T02:51:25.282Z,99701.97
2023-09-13T02:56:28.733Z,99709.72
2023-09-13T03:01:33.813Z,99701.06
2023-09-13T03:06:37.347Z,99704.47
2023-09-13T03:11:40.779Z,99712.22
2023-09-13T03:16:45.685Z,99710.44
2023-09-13T03:21:50.391Z,99717.34
2023-09-13T03:26:53.880Z,99712.25
2023-09-13T03:31:58.849Z,99711.47
2023-09-13T03:37:02.506Z,99716.78
2023-09-13T03:42:06.250Z,99723.69
2023-09-13T03:47:11.283Z,99718.63
2023-09-13T03:52:14.936Z,99716.94
2023-09-13T03:57:18.491Z,99722.25
2023-09-13T04:02:23.700Z,99721.69
2023-09-13T04:07:27.330Z,99725.03
2023-09-13T04:12:30.768Z,99725.78
2023-09-13T04:17:35.784Z,99721.44
2023-09-13T04:22:39.396Z,99729.22
2023-09-13T04:27:45.125Z,99730.13
2023-09-13T04:32:50.091Z,99742.63
2023-09-13T04:37:55.262Z,99742.28
2023-09-13T04:43:25.051Z,99736.34
2023-09-13T04:48:30.147Z,99735.44
2023-09-13T04:53:34.886Z,99738.00
2023-09-13T04:58:39.159Z,99740.38
2023-09-13T05:03:46.595Z,99743.50
2023-09-13T05:08:52.173Z,99740.59
2023-09-13T05:14:11.227Z,99740.44
2023-09-13T05:19:16.193Z,99750.66
2023-09-13T05:24:19.846Z,99748.78
2023-09-13T05:29:24.143Z,99748.84
2023-09-13T05:34:29.787Z,99754.03
2023-09-13T05:39:33.327Z,99755.09
2023-09-13T05:44:36.882Z,99755.88
2023-09-13T05:49:41.765Z,99745.81
2023-09-13T05:54:45.310Z,99735.19
2023-09-13T05:59:48.774Z,99742.03
2023-09-13T06:04:53.765Z,99743.41
2023-09-13T06:09:59.666Z,99743.53
2023-09-13T06:15:03.254Z,99740.56
2023-09-13T06:20:10.250Z,99747.41
2023-09-13T06:25:15.798Z,99741.69
2023-09-13T06:30:20.882Z,99740.72
2023-09-13T06:35:25.993Z,99727.75
2023-09-13T06:40:35.594Z,99739.34
2023-09-13T06:45:54.147Z,99745.16
2023-09-13T06:56:13.777Z,99761.81
2023-09-13T07:06:26.263Z,99769.00
2023-09-13T07:11:30.025Z,99768.88
2023-09-13T07:16:33.771Z,99763.69
2023-09-13T07:21:38.864Z,99767.50
2023-09-13T07:26:42.371Z,99764.53
2023-09-13T07:31:46.042Z,99761.59
2023-09-13T07:36:51.004Z,99762.28
2023-09-13T07:41:54.586Z,99756.72
2023-09-13T07:46:58.207Z,99757.84
2023-09-13T07:52:03.580Z,99749.19
2023-09-13T07:57:07.370Z,99743.22
2023-09-13T08:02:10.944Z,99755.72
2023-09-13T08:07:15.933Z,99746.09
2023-09-13T08:12:19.538Z,99744.44
2023-09-13T08:17:23.165Z,99744.88
2023-09-13T08:22:39.268Z,99732.34
2023-09-13T08:27:44.299Z,99716.22
2023-09-13T08:32:48.146Z,99723.84
2023-09-13T08:37:53.140Z,99718.09
2023-09-13T08:42:58.053Z,99713.06
2023-09-13T08:48:03.684Z,99701.38
2023-09-13T08:53:10.180Z,99707.28
2023-09-13T08:58:13.709Z,99711.53
2023-09-13T09:03:19.641Z,99699.19
2023-09-13T09:08:26.320Z,99692.81
2023-09-13T09:13:31.084Z,99678.13
2023-09-13T09:18:38.950Z,99682.31
2023-09-13T09:23:44.743Z,99690.47
2023-09-13T09:28:52.059Z,99686.78
2023-09-13T09:34:04.575Z,99679.47
2023-09-13T09:39:09.880Z,99685.59
2023-09-13T09:44:13.521Z,99684.50
2023-09-13T09:49:17.026Z,99692.81
2023-09-13T09:54:22.079Z,99682.31
2023-09-13T09:59:30.357Z,99674.03
2023-09-13T10:04:47.487Z,99673.59
2023-09-13T10:09:52.860Z,99624.63
2023-09-13T10:14:58.645Z,99691.53
2023-09-13T10:20:04.984Z,99675.53
2023-09-13T10:25:14.026Z,99667.13
2023-09-13T10:30:23.169Z,99680.78
2023-09-13T10:35:30.566Z,99671.72
2023-09-13T10:40:42.394Z,99675.59
2023-09-13T10:45:46.207Z,99674.44
2023-09-13T10:50:50.941Z,99662.94
2023-09-13T10:55:56.729Z,99669.91
2023-09-13T11:01:00.968Z,99662.03
2023-09-13T11:06:05.473Z,99669.06
2023-09-13T11:11:13.484Z,99676.38
2023-09-13T11:16:17.525Z,99664.94
2023-09-13T11:21:22.605Z,99663.84
2023-09-13T11:26:50.288Z,99666.56
2023-09-13T11:32:02.327Z,99669.53
2023-09-13T11:37:08.873Z,99658.13
2023-09-13T11:42:25.805Z,99657.59
2023-09-13T11:47:37.750Z,99659.31
2023-09-13T11:53:14.791Z,99652.09
2023-09-13T11:58:51.110Z,99664.16
2023-09-13T12:09:00.279Z,99652.66
2023-09-13T12:14:12.723Z,99649.41
2023-09-13T12:19:19.772Z,99635.03
2023-09-13T12:24:26.244Z,99638.88
2023-09-13T12:29:31.344Z,99632.00
2023-09-13T12:34:34.999Z,99633.03
2023-09-13T12:39:38.565Z,99628.50
2023-09-13T12:44:47.120Z,99629.38
2023-09-13T12:49:52.226Z,99621.72
2023-09-13T12:54:57.581Z,99623.84
2023-09-13T13:00:02.489Z,99618.91
2023-09-13T13:05:08.736Z,99617.97
2023-09-13T13:10:16.816Z,99615.28
2023-09-13T13:15:22.804Z,99619.41
2023-09-13T13:20:27.994Z,99610.63
2023-09-13T13:25:31.843Z,99609.63
2023-09-13T13:30:37.466Z,99615.97
2023-09-13T13:35:41.218Z,99598.88
2023-09-13T13:40:44.751Z,99609.59
2023-09-13T13:45:49.815Z,99595.13
2023-09-13T13:50:53.406Z,99610.53
2023-09-13T13:55:57.144Z,99596.38
2023-09-13T14:01:05.039Z,99593.94
2023-09-13T14:06:08.760Z,99611.06
2023-09-13T14:11:12.331Z,99606.38
2023-09-13T14:16:17.380Z,99606.50
2023-09-13T14:21:20.957Z,99604.38
2023-09-13T14:26:24.452Z,99594.22
2023-09-13T14:31:31.054Z,99597.31
2023-09-13T14:36:34.695Z,99594.91
2023-09-13T14:41:38.401Z,99597.78
2023-09-13T14:46:43.467Z,99593.50
2023-09-13T14:51:50.051Z,99588.81
2023-09-13T14:56:54.119Z,99589.75
2023-09-13T15:02:00.093Z,99576.38
2023-09-13T15:07:03.748Z,99587.69
2023-09-13T15:12:11.055Z,99581.50
2023-09-13T15:17:16.170Z,99591.94
2023-09-13T15:22:19.893Z,99592.75
2023-09-13T15:27:26.123Z,99590.75
2023-09-13T15:32:31.296Z,99597.44
2023-09-13T15:37:35.057Z,99588.72
2023-09-13T15:42:39.935Z,99587.09
2023-09-13T15:47:45.036Z,99588.13
2023-09-13T15:52:49.582Z,99588.13
2023-09-13T15:57:53.126Z,99599.13
2023-09-13T16:02:58.344Z,99600.28
2023-09-13T16:08:01.942Z,99603.50
2023-09-13T16:13:05.777Z,99604.88
2023-09-13T16:18:10.735Z,99601.78
2023-09-13T16:23:16.693Z,99600.53
2023-09-13T16:28:20.612Z,99606.19
2023-09-13T16:33:26.377Z,99610.94
2023-09-13T16:38:29.983Z,99607.91
2023-09-13T16:43:33.483Z,99599.56
2023-09-13T16:48:38.431Z,99605.88
2023-09-13T16:53:41.929Z,99599.31
2023-09-13T16:58:45.841Z,99598.66
2023-09-13T17:03:51.165Z,99600.66
2023-09-13T17:08:57.201Z,99610.50
2023-09-13T17:14:00.787Z,99613.34
2023-09-13T17:19:05.806Z,99615.25
2023-09-13T17:24:09.487Z,99609.38
2023-09-13T17:29:12.995Z,99613.97
2023-09-13T17:34:17.913Z,99618.41
2023-09-13T17:39:21.654Z,99613.47
2023-09-13T17:44:25.710Z,99605.81
2023-09-13T17:49:30.681Z,99615.44
2023-09-13T17:54:34.755Z,99610.50
2023-09-13T17:59:39.017Z,99614.91
2023-09-13T18:04:44.071Z,99607.16
2023-09-13T18:09:48.024Z,99607.31
2023-09-13T18:14:51.989Z,99613.56
2023-09-13T18:19:56.922Z,99606.59
2023-09-13T18:25:00.454Z,99612.91
2023-09-13T18:30:04.899Z,99615.69
2023-09-13T18:35:11.389Z,99608.75
2023-09-13T18:40:14.889Z,99600.25
2023-09-13T18:45:18.485Z,99608.16
2023-09-13T18:50:23.384Z,99609.13
2023-09-13T18:55:26.956Z,99608.41
2023-09-13T19:00:30.597Z,99600.72
2023-09-13T19:05:35.490Z,99612.84
2023-09-13T19:10:39.071Z,99613.81
2023-09-13T19:15:42.697Z,99605.16
2023-09-13T19:20:49.221Z,99603.50
2023-09-13T19:25:53.365Z,99603.59
2023-09-13T19:30:59.642Z,99594.06
2023-09-13T19:36:06.684Z,99593.31
2023-09-13T19:41:13.400Z,99595.25
2023-09-13T19:46:17.408Z,99599.69
2023-09-13T19:51:22.862Z,99586.63
2023-09-13T19:56:26.453Z,99585.78
2023-09-13T20:01:29.943Z,99589.28
2023-09-13T20:06:37.303Z,99595.38
2023-09-13T20:11:44.603Z,99597.13
2023-09-13T20:16:48.135Z,99600.69
2023-09-13T20:21:53.025Z,99594.63
2023-09-13T20:26:56.573Z,99595.56
2023-09-13T20:32:00.081Z,99593.88
2023-09-13T20:37:05.423Z,99592.13
2023-09-13T20:42:11.253Z,99593.06
2023-09-13T20:47:14.728Z,99597.44
2023-09-13T20:52:19.731Z,99590.47
2023-09-13T20:57:23.278Z,99601.78
2023-09-13T21:02:26.756Z,99601.84
2023-09-13T21:07:31.671Z,99607.91
2023-09-13T21:12:35.267Z,99608.78
2023-09-13T21:17:38.811Z,99581.09
2023-09-13T21:22:43.754Z,99615.75
2023-09-13T21:27:47.053Z,99614.84
2023-09-13T21:32:50.595Z,99614.94
2023-09-13T21:37:55.468Z,99614.91
2023-09-13T21:42:59.039Z,99611.47
2023-09-13T21:48:02.635Z,99612.38
2023-09-13T21:53:07.661Z,99614.13
2023-09-13T21:58:13.712Z,99617.59
2023-09-13T22:03:18.038Z,99607.19
2023-09-13T22:08:23.164Z,99617.59
2023-09-13T22:13:27.045Z,99611.56
2023-09-13T22:18:31.037Z,99609.84
2023-09-13T22:23:36.146Z,99610.69
2023-09-13T22:28:39.733Z,99608.97
2023-09-13T22:33:43.381Z,99603.78
2023-09-13T22:38:58.402Z,99602.91
2023-09-13T22:44:11.883Z,99606.38
2023-09-13T22:49:15.510Z,99603.81
2023-09-13T22:54:20.932Z,99604.66
2023-09-13T22:59:24.994Z,99602.94
2023-09-13T23:04:28.624Z,99601.19
2023-09-13T23:09:34.859Z,99600.34
2023-09-13T23:14:38.902Z,99590.78
2023-09-13T23:19:42.361Z,99596.88
2023-09-13T23:24:47.266Z,99603.81
2023-09-13T23:29:50.813Z,99601.22
2023-09-13T23:34:54.432Z,99593.41
2023-09-13T23:39:59.889Z,99591.66
2023-09-13T23:45:03.722Z,99591.66
2023-09-13T23:50:08.910Z,99591.66
2023-09-13T23:55:14.147Z,99598.63
